createdAt,value
2018-08-24T00:00:34.240Z,20.50
2018-08-24T00:02:36.421Z,20.50
2018-08-24T00:04:38.614Z,20.40
2018-08-24T00:06:41.263Z,20.30
2018-08-24T00:08:43.402Z,20.30
2018-08-24T00:10:45.798Z,20.30
2018-08-24T00:12:47.985Z,20.30
2018-08-24T00:14:50.162Z,20.30
2018-08-24T00:16:52.564Z,20.30
2018-08-24T00:18:54.716Z,20.30
2018-08-24T00:20:56.885Z,20.20
2018-08-24T00:22:59.078Z,20.20
2018-08-24T00:25:01.255Z,20.20
2018-08-24T00:27:35.776Z,20.20
2018-08-24T00:29:38.193Z,20.10
2018-08-24T00:31:41.579Z,20.10
2018-08-24T00:33:50.151Z,20.10
2018-08-24T00:35:52.556Z,20.00
2018-08-24T00:37:54.843Z,20.00
2018-08-24T00:39:57.251Z,20.00
2018-08-24T00:41:59.455Z,20.00
2018-08-24T00:44:01.644Z,20.00
2018-08-24T00:46:03.810Z,20.00
2018-08-24T00:48:06.339Z,19.90
2018-08-24T00:50:08.496Z,19.90
2018-08-24T00:52:10.678Z,19.90
2018-08-24T00:54:13.091Z,19.90
2018-08-24T00:56:15.242Z,19.80
2018-08-24T00:58:17.393Z,19.90
2018-08-24T01:00:23.240Z,19.80
2018-08-24T01:02:25.387Z,19.80
2018-08-24T01:04:32.914Z,19.80
2018-08-24T01:06:35.085Z,19.80
2018-08-24T01:08:37.241Z,19.80
2018-08-24T01:10:39.415Z,19.80
2018-08-24T01:12:41.603Z,19.80
2018-08-24T01:14:46.954Z,19.80
2018-08-24T01:16:54.769Z,19.80
2018-08-24T01:18:56.922Z,19.80
2018-08-24T01:20:59.182Z,19.80
2018-08-24T01:23:01.338Z,19.80
2018-08-24T01:25:03.615Z,19.80
2018-08-24T01:27:06.661Z,19.80
2018-08-24T01:29:08.905Z,19.80
2018-08-24T01:31:11.101Z,19.80
2018-08-24T01:33:13.531Z,19.80
2018-08-24T01:35:15.687Z,19.80
2018-08-24T01:37:18.123Z,19.80
2018-08-24T01:39:20.355Z,19.80
2018-08-24T01:41:22.499Z,19.90
2018-08-24T01:43:24.676Z,19.70
2018-08-24T01:45:26.835Z,19.70
2018-08-24T01:47:28.989Z,19.70
2018-08-24T01:49:31.119Z,19.60
2018-08-24T01:51:33.559Z,19.60
2018-08-24T01:53:35.790Z,19.60
2018-08-24T01:55:37.938Z,19.50
2018-08-24T01:57:40.093Z,19.60
2018-08-24T01:59:42.234Z,19.60
2018-08-24T02:01:44.382Z,19.60
2018-08-24T02:03:46.534Z,19.50
2018-08-24T02:05:48.730Z,19.50
2018-08-24T02:07:50.901Z,19.60
2018-08-24T02:09:53.127Z,19.70
2018-08-24T02:11:55.306Z,19.70
2018-08-24T02:14:03.070Z,19.70
2018-08-24T02:16:05.265Z,19.70
2018-08-24T02:18:13.166Z,19.70
2018-08-24T02:20:20.991Z,19.70
2018-08-24T02:22:23.138Z,19.80
2018-08-24T02:24:25.287Z,19.70
2018-08-24T02:26:27.469Z,19.80
2018-08-24T02:28:29.655Z,19.80
2018-08-24T02:30:31.955Z,19.50
2018-08-24T02:32:34.099Z,19.40
2018-08-24T02:34:36.274Z,19.20
2018-08-24T02:36:38.470Z,19.10
2018-08-24T02:38:40.681Z,19.10
2018-08-24T02:40:42.844Z,19.00
2018-08-24T02:42:46.006Z,18.70
2018-08-24T02:44:48.183Z,18.60
2018-08-24T02:46:50.358Z,18.50
2018-08-24T02:48:52.875Z,18.50
2018-08-24T02:50:55.007Z,18.60
2018-08-24T02:52:57.133Z,18.90
2018-08-24T02:54:59.284Z,18.60
2018-08-24T02:57:01.465Z,18.70
2018-08-24T02:59:03.702Z,18.30
2018-08-24T03:01:05.886Z,18.50
2018-08-24T03:03:08.029Z,18.30
2018-08-24T03:05:10.205Z,18.30
2018-08-24T03:07:12.675Z,18.30
2018-08-24T03:09:14.854Z,18.30
2018-08-24T03:11:16.964Z,18.40
2018-08-24T03:13:19.091Z,18.30
2018-08-24T03:15:21.298Z,18.30
2018-08-24T03:17:29.245Z,18.60
2018-08-24T03:19:31.433Z,18.60
2018-08-24T03:21:33.623Z,18.00
2018-08-24T03:23:36.223Z,17.90
2018-08-24T03:25:38.386Z,17.90
2018-08-24T03:27:40.528Z,17.80
2018-08-24T03:29:42.658Z,17.70
2018-08-24T03:31:44.830Z,17.90
2018-08-24T03:33:47.542Z,17.60
2018-08-24T03:35:49.726Z,17.50
2018-08-24T03:37:51.893Z,17.40
2018-08-24T03:39:54.022Z,17.40
2018-08-24T03:41:56.839Z,17.40
2018-08-24T03:43:59.035Z,17.20
2018-08-24T03:46:01.249Z,17.40
2018-08-24T03:48:03.404Z,17.30
2018-08-24T03:50:05.586Z,17.40
2018-08-24T03:52:07.762Z,17.20
2018-08-24T03:54:19.002Z,17.20
2018-08-24T03:56:21.168Z,17.20
2018-08-24T03:58:23.542Z,17.20
2018-08-24T04:00:25.720Z,17.20
2018-08-24T04:02:27.883Z,17.20
2018-08-24T04:04:30.312Z,17.10
2018-08-24T04:06:32.483Z,17.10
2018-08-24T04:08:34.663Z,17.10
2018-08-24T04:10:37.145Z,17.10
2018-08-24T04:12:39.342Z,17.20
2018-08-24T04:14:41.492Z,17.20
2018-08-24T04:16:49.460Z,17.20
2018-08-24T04:18:51.900Z,17.20
2018-08-24T04:20:54.035Z,17.10
2018-08-24T04:22:56.417Z,17.10
2018-08-24T04:24:58.570Z,17.10
2018-08-24T04:27:00.702Z,17.00
2018-08-24T04:29:02.942Z,17.10
2018-08-24T04:31:05.115Z,17.00
2018-08-24T04:33:07.294Z,17.10
2018-08-24T04:35:09.480Z,17.10
2018-08-24T04:37:11.646Z,17.20
2018-08-24T04:39:13.916Z,17.00
2018-08-24T04:41:16.131Z,17.00
2018-08-24T04:43:18.318Z,17.00
2018-08-24T04:45:20.556Z,17.00
2018-08-24T04:47:22.744Z,16.90
2018-08-24T04:49:24.876Z,17.00
2018-08-24T04:51:27.403Z,16.80
2018-08-24T04:53:29.840Z,16.80
2018-08-24T04:55:32.025Z,16.70
2018-08-24T04:57:34.149Z,16.80
2018-08-24T04:59:36.361Z,16.70
2018-08-24T05:01:38.715Z,16.70
2018-08-24T05:03:41.032Z,16.50
2018-08-24T05:05:43.554Z,16.60
2018-08-24T05:07:45.723Z,16.70
2018-08-24T05:09:47.894Z,16.80
2018-08-24T05:11:50.075Z,16.70
2018-08-24T05:13:52.331Z,16.70
2018-08-24T05:15:54.516Z,16.80
2018-08-24T05:17:56.704Z,17.00
2018-08-24T05:19:58.963Z,16.70
2018-08-24T05:22:01.166Z,16.60
2018-08-24T05:24:03.647Z,16.60
2018-08-24T05:26:05.795Z,16.50
2018-08-24T05:28:07.996Z,16.60
2018-08-24T05:30:10.302Z,16.60
2018-08-24T05:32:12.461Z,16.50
2018-08-24T05:34:14.718Z,16.60
2018-08-24T05:36:16.907Z,16.50
2018-08-24T05:38:19.070Z,16.50
2018-08-24T05:40:21.233Z,16.30
2018-08-24T05:42:23.365Z,16.40
2018-08-24T05:44:25.673Z,16.20
2018-08-24T05:46:27.802Z,16.30
2018-08-24T05:48:29.955Z,16.30
2018-08-24T05:50:32.172Z,16.30
2018-08-24T05:52:34.303Z,16.40
2018-08-24T05:54:36.411Z,16.40
2018-08-24T05:56:38.564Z,16.50
2018-08-24T05:58:40.728Z,16.50
2018-08-24T06:00:45.079Z,16.70
2018-08-24T06:02:47.213Z,16.70
2018-08-24T06:04:49.344Z,16.50
2018-08-24T06:06:51.541Z,16.60
2018-08-24T06:08:59.310Z,16.60
2018-08-24T06:11:02.006Z,16.60
2018-08-24T06:13:04.863Z,16.60
2018-08-24T06:15:06.990Z,16.70
2018-08-24T06:17:14.923Z,16.70
2018-08-24T06:19:17.642Z,16.70
2018-08-24T06:21:19.758Z,16.60
2018-08-24T06:23:21.904Z,16.60
2018-08-24T06:25:24.046Z,16.50
2018-08-24T06:27:26.200Z,16.50
2018-08-24T06:29:28.347Z,16.50
2018-08-24T06:31:30.554Z,16.60
2018-08-24T06:33:32.663Z,16.50
2018-08-24T06:35:35.076Z,16.60
2018-08-24T06:37:37.403Z,16.60
2018-08-24T06:39:39.619Z,16.60
2018-08-24T06:41:42.638Z,16.70
2018-08-24T06:43:44.756Z,16.70
2018-08-24T06:45:46.884Z,16.80
2018-08-24T06:47:49.199Z,16.70
2018-08-24T06:49:51.294Z,16.70
2018-08-24T06:51:53.407Z,16.80
2018-08-24T06:53:55.664Z,16.70
2018-08-24T06:55:57.751Z,16.70
2018-08-24T06:57:59.890Z,16.60
2018-08-24T07:00:02.116Z,16.50
2018-08-24T07:02:04.294Z,16.50
2018-08-24T07:04:06.409Z,16.40
2018-08-24T07:06:08.568Z,16.60
2018-08-24T07:08:10.702Z,16.70
2018-08-24T07:10:13.100Z,16.60
2018-08-24T07:12:15.210Z,16.60
2018-08-24T07:14:17.361Z,16.50
2018-08-24T07:16:19.526Z,16.50
2018-08-24T07:18:21.670Z,16.60
2018-08-24T07:20:23.814Z,16.50
2018-08-24T07:22:25.985Z,16.70
2018-08-24T07:24:28.082Z,16.50
2018-08-24T07:26:30.221Z,16.70
2018-08-24T07:28:33.103Z,16.70
2018-08-24T07:30:35.236Z,16.50
2018-08-24T07:32:37.810Z,16.50
2018-08-24T07:34:39.922Z,16.70
2018-08-24T07:36:42.203Z,16.60
2018-08-24T07:38:44.331Z,16.80
2018-08-24T07:40:46.458Z,16.90
2018-08-24T07:42:48.582Z,16.80
2018-08-24T07:44:52.137Z,17.00
2018-08-24T07:46:54.234Z,17.00
2018-08-24T07:48:56.399Z,16.70
2018-08-24T07:50:58.660Z,16.70
2018-08-24T07:53:00.791Z,17.20
2018-08-24T07:55:02.945Z,17.40
2018-08-24T07:57:05.438Z,17.20
2018-08-24T07:59:07.502Z,17.20
2018-08-24T08:01:09.624Z,17.40
2018-08-24T08:03:11.760Z,17.20
2018-08-24T08:05:14.465Z,17.40
2018-08-24T08:07:16.586Z,17.60
2018-08-24T08:09:18.770Z,17.70
2018-08-24T08:11:20.998Z,17.50
2018-08-24T08:13:23.133Z,17.20
2018-08-24T08:15:25.294Z,17.20
2018-08-24T08:17:27.475Z,17.20
2018-08-24T08:19:30.538Z,17.30
2018-08-24T08:21:32.650Z,17.40
2018-08-24T08:23:34.903Z,17.40
2018-08-24T08:25:37.036Z,17.30
2018-08-24T08:27:39.203Z,17.20
2018-08-24T08:29:47.403Z,17.30
2018-08-24T08:33:58.744Z,17.50
2018-08-24T08:36:00.893Z,17.60
2018-08-24T08:38:03.011Z,17.80
2018-08-24T08:40:05.274Z,17.70
2018-08-24T08:42:07.455Z,17.70
2018-08-24T08:44:10.706Z,17.70
2018-08-24T08:46:12.812Z,17.70
2018-08-24T08:48:14.979Z,18.00
2018-08-24T08:50:17.135Z,18.20
2018-08-24T08:52:19.326Z,18.30
2018-08-24T08:54:21.470Z,18.00
2018-08-24T08:56:23.655Z,17.90
2018-08-24T08:58:25.824Z,18.00
2018-08-24T09:00:27.999Z,17.90
2018-08-24T09:02:30.198Z,17.90
2018-08-24T09:04:32.343Z,17.70
2018-08-24T09:06:34.548Z,17.60
2018-08-24T09:08:36.604Z,17.70
2018-08-24T09:10:38.760Z,17.60
2018-08-24T09:12:41.281Z,17.70
2018-08-24T09:14:43.535Z,17.70
2018-08-24T09:16:45.667Z,17.80
2018-08-24T09:18:53.478Z,17.70
2018-08-24T09:23:03.754Z,17.70
2018-08-24T09:25:11.967Z,17.70
2018-08-24T09:27:20.522Z,17.70
2018-08-24T09:29:28.630Z,17.50
2018-08-24T09:31:32.860Z,17.50
2018-08-24T09:33:35.072Z,17.60
2018-08-24T09:35:37.189Z,17.60
2018-08-24T09:37:39.634Z,17.50
2018-08-24T09:39:41.776Z,17.40
2018-08-24T09:41:43.903Z,17.40
2018-08-24T09:58:54.185Z,17.40
2018-08-24T10:01:02.151Z,17.10
2018-08-24T10:03:10.310Z,17.20
2018-08-24T10:05:18.057Z,17.30
2018-08-24T10:07:23.270Z,17.40
2018-08-24T10:09:25.451Z,17.50
2018-08-24T10:11:27.582Z,17.30
2018-08-24T10:13:29.758Z,17.60
2018-08-24T10:15:31.908Z,17.80
2018-08-24T10:17:34.050Z,17.60
2018-08-24T10:19:36.334Z,17.60
2018-08-24T10:21:38.515Z,17.70
2018-08-24T10:23:40.679Z,17.90
2018-08-24T10:25:42.837Z,17.90
2018-08-24T10:27:44.962Z,18.20
2018-08-24T10:29:47.250Z,18.40
2018-08-24T10:31:49.651Z,18.60
2018-08-24T10:33:51.817Z,18.80
2018-08-24T10:35:53.946Z,18.70
2018-08-24T10:37:56.261Z,18.60
2018-08-24T10:39:58.383Z,18.80
2018-08-24T10:42:00.506Z,18.80
2018-08-24T10:44:02.852Z,18.70
2018-08-24T10:46:04.991Z,18.80
2018-08-24T10:48:07.123Z,19.00
2018-08-24T10:50:09.315Z,19.00
2018-08-24T10:52:11.563Z,18.90
2018-08-24T10:54:13.686Z,18.90
2018-08-24T10:56:16.147Z,18.80
2018-08-24T10:58:18.219Z,18.70
2018-08-24T11:00:20.400Z,18.70
2018-08-24T11:02:22.619Z,19.10
2018-08-24T11:04:24.782Z,19.60
2018-08-24T11:06:26.962Z,20.20
2018-08-24T11:08:29.143Z,20.30
2018-08-24T11:10:31.319Z,20.10
2018-08-24T11:12:33.645Z,20.00
2018-08-24T11:14:35.793Z,20.40
2018-08-24T11:16:37.939Z,21.00
2018-08-24T11:18:40.529Z,21.00
2018-08-24T11:20:42.663Z,21.10
2018-08-24T11:22:44.847Z,21.50
2018-08-24T11:24:47.306Z,21.10
2018-08-24T11:26:49.551Z,21.50
2018-08-24T11:28:51.634Z,21.10
2018-08-24T11:30:53.847Z,20.90
2018-08-24T11:32:56.192Z,20.50
2018-08-24T11:34:58.359Z,20.30
2018-08-24T11:37:00.508Z,20.10
2018-08-24T11:39:04.027Z,20.00
2018-08-24T11:41:06.176Z,19.70
2018-08-24T11:43:08.723Z,19.50
2018-08-24T11:45:10.883Z,19.90
2018-08-24T11:47:17.416Z,20.30
2018-08-24T11:49:19.793Z,20.00
2018-08-24T11:51:21.983Z,19.70
2018-08-24T11:53:24.303Z,20.10
2018-08-24T11:55:26.481Z,20.20
2018-08-24T11:57:28.611Z,20.30
2018-08-24T11:59:30.771Z,20.40
2018-08-24T12:01:33.307Z,20.50
2018-08-24T12:03:35.429Z,20.60
2018-08-24T12:05:37.620Z,21.50
2018-08-24T12:07:39.765Z,22.00
2018-08-24T12:09:41.906Z,20.90
2018-08-24T12:11:44.059Z,20.40
2018-08-24T12:13:46.290Z,20.40
2018-08-24T12:15:48.499Z,20.70
2018-08-24T12:17:50.643Z,21.00
2018-08-24T12:19:53.394Z,21.10
2018-08-24T12:21:55.558Z,21.20
2018-08-24T12:23:57.702Z,21.50
2018-08-24T12:25:59.866Z,21.90
2018-08-24T12:28:02.049Z,22.50
2018-08-24T12:30:04.383Z,22.50
2018-08-24T12:32:06.884Z,22.90
2018-08-24T12:34:08.990Z,22.50
2018-08-24T12:36:13.142Z,22.80
2018-08-24T12:38:15.263Z,24.10
2018-08-24T12:40:17.403Z,25.00
2018-08-24T12:42:19.566Z,25.40
2018-08-24T12:44:22.390Z,25.80
2018-08-24T12:46:24.530Z,26.20
2018-08-24T12:48:26.698Z,26.40
2018-08-24T12:50:29.122Z,26.70
2018-08-24T12:52:31.255Z,25.50
2018-08-24T12:54:33.411Z,25.30
2018-08-24T12:56:35.810Z,26.30
2018-08-24T12:58:37.952Z,26.70
2018-08-24T13:00:40.093Z,27.40
2018-08-24T13:02:42.275Z,26.50
2018-08-24T13:04:44.404Z,24.40
2018-08-24T13:06:46.573Z,23.00
2018-08-24T13:08:49.077Z,22.10
2018-08-24T13:10:51.329Z,21.30
2018-08-24T13:12:53.526Z,21.70
2018-08-24T13:14:56.095Z,21.90
2018-08-24T13:16:58.247Z,22.10
2018-08-24T13:19:00.640Z,21.90
2018-08-24T13:21:03.138Z,21.20
2018-08-24T13:23:05.297Z,20.80
2018-08-24T13:25:07.575Z,20.50
2018-08-24T13:27:09.763Z,21.00
2018-08-24T13:29:11.843Z,21.40
2018-08-24T13:31:13.991Z,21.70
2018-08-24T13:33:16.130Z,21.70
2018-08-24T13:35:18.499Z,20.70
2018-08-24T13:37:20.760Z,20.80
2018-08-24T13:39:22.906Z,20.90
2018-08-24T13:41:25.050Z,21.00
2018-08-24T13:43:27.215Z,22.20
2018-08-24T13:45:29.366Z,21.30
2018-08-24T13:47:31.580Z,19.80
2018-08-24T13:49:33.735Z,20.10
2018-08-24T13:51:35.838Z,19.30
2018-08-24T13:53:38.255Z,18.80
2018-08-24T13:55:40.354Z,18.70
2018-08-24T13:57:42.547Z,18.80
2018-08-24T13:59:44.710Z,18.50
2018-08-24T14:01:46.897Z,18.90
2018-08-24T14:03:49.024Z,19.30
2018-08-24T14:05:55.481Z,20.00
2018-08-24T14:07:57.711Z,20.30
2018-08-24T14:09:59.888Z,20.50
2018-08-24T14:12:02.038Z,21.80
2018-08-24T14:14:04.241Z,22.80
2018-08-24T14:16:06.563Z,21.90
2018-08-24T14:18:09.063Z,21.70
2018-08-24T14:20:11.205Z,21.60
2018-08-24T14:22:13.385Z,21.50
2018-08-24T14:24:15.496Z,21.90
2018-08-24T14:26:17.634Z,20.60
2018-08-24T14:28:19.798Z,20.00
2018-08-24T14:30:22.035Z,19.80
2018-08-24T14:32:24.243Z,19.50
2018-08-24T14:34:26.378Z,19.30
2018-08-24T14:36:28.662Z,19.00
2018-08-24T14:38:30.819Z,19.30
2018-08-24T14:40:32.966Z,19.10
2018-08-24T14:42:35.690Z,19.70
2018-08-24T14:44:37.838Z,20.20
2018-08-24T14:46:39.976Z,20.00
2018-08-24T14:48:42.127Z,20.30
2018-08-24T14:50:44.308Z,20.00
2018-08-24T14:52:46.470Z,19.80
2018-08-24T14:54:48.694Z,19.00
2018-08-24T14:56:50.867Z,18.90
2018-08-24T14:58:53.070Z,19.50
2018-08-24T15:00:55.330Z,20.10
2018-08-24T15:02:57.502Z,20.20
2018-08-24T15:04:59.651Z,20.20
2018-08-24T15:07:01.810Z,20.70
2018-08-24T15:09:07.410Z,21.40
2018-08-24T15:11:09.671Z,21.30
2018-08-24T15:13:11.798Z,21.70
2018-08-24T15:15:14.177Z,22.80
2018-08-24T15:17:16.331Z,21.10
2018-08-24T15:19:18.484Z,20.40
2018-08-24T15:21:20.610Z,20.20
2018-08-24T15:23:22.736Z,20.20
2018-08-24T15:25:24.863Z,20.60
2018-08-24T15:27:27.115Z,19.90
2018-08-24T15:29:29.668Z,19.20
2018-08-24T15:31:31.773Z,19.00
2018-08-24T15:33:34.359Z,19.60
2018-08-24T15:35:36.600Z,19.30
2018-08-24T15:37:38.754Z,19.10
2018-08-24T15:39:41.463Z,19.10
2018-08-24T15:41:43.615Z,19.20
2018-08-24T15:43:45.893Z,18.80
2018-08-24T15:45:48.126Z,18.50
2018-08-24T15:47:51.119Z,18.60
2018-08-24T15:49:53.315Z,19.10
2018-08-24T15:51:55.463Z,19.00
2018-08-24T15:53:57.630Z,19.10
2018-08-24T15:56:01.598Z,19.50
2018-08-24T15:58:03.787Z,19.40
2018-08-24T16:00:06.331Z,18.80
2018-08-24T16:02:08.594Z,18.60
2018-08-24T16:04:10.768Z,18.50
2018-08-24T16:06:13.039Z,18.40
2018-08-24T16:08:15.285Z,18.90
2018-08-24T16:10:17.580Z,18.90
2018-08-24T16:12:20.130Z,18.60
2018-08-24T16:14:22.474Z,18.40
2018-08-24T16:16:24.685Z,18.40
2018-08-24T16:18:26.902Z,18.60
2018-08-24T16:20:29.776Z,18.50
2018-08-24T16:22:33.139Z,18.30
2018-08-24T16:24:35.515Z,18.50
2018-08-24T16:26:37.729Z,18.30
2018-08-24T16:28:40.349Z,18.30
2018-08-24T16:30:42.752Z,18.30
2018-08-24T16:32:44.950Z,18.10
2018-08-24T16:34:49.204Z,18.00
2018-08-24T16:36:51.752Z,18.10
2018-08-24T16:38:54.086Z,18.00
2018-08-24T16:40:56.388Z,18.00
2018-08-24T16:42:58.539Z,18.00
2018-08-24T16:45:00.658Z,18.00
2018-08-24T16:47:02.956Z,17.70
2018-08-24T16:49:05.094Z,17.30
2018-08-24T16:51:07.458Z,16.90
2018-08-24T16:53:09.578Z,16.90
2018-08-24T16:55:11.894Z,17.00
2018-08-24T16:57:14.182Z,16.90
2018-08-24T16:59:16.514Z,16.90
2018-08-24T17:01:18.686Z,16.90
2018-08-24T17:03:20.890Z,17.00
2018-08-24T17:05:23.040Z,16.70
2018-08-24T17:07:25.323Z,16.80
2018-08-24T17:09:28.543Z,16.80
2018-08-24T17:11:30.815Z,16.60
2018-08-24T17:13:32.955Z,16.60
2018-08-24T17:15:35.092Z,16.50
2018-08-24T17:17:37.202Z,16.40
2018-08-24T17:19:39.623Z,16.40
2018-08-24T17:21:41.831Z,16.40
2018-08-24T17:23:44.256Z,16.40
2018-08-24T17:25:46.407Z,16.40
2018-08-24T17:27:48.525Z,16.30
2018-08-24T17:29:50.746Z,16.30
2018-08-24T17:31:52.962Z,16.30
2018-08-24T17:33:55.187Z,16.30
2018-08-24T17:35:57.336Z,16.20
2018-08-24T17:37:59.474Z,16.40
2018-08-24T17:40:01.636Z,16.30
2018-08-24T17:42:03.902Z,16.30
2018-08-24T17:46:10.457Z,16.30
2018-08-24T17:48:12.684Z,16.30
2018-08-24T17:50:22.514Z,16.40
2018-08-24T17:52:24.691Z,16.30
2018-08-24T17:54:33.757Z,16.30
2018-08-24T17:56:36.310Z,16.40
2018-08-24T17:58:38.495Z,16.70
2018-08-24T18:00:40.677Z,16.80
2018-08-24T18:02:42.867Z,17.00
2018-08-24T18:04:45.018Z,17.10
2018-08-24T18:06:47.166Z,17.30
2018-08-24T18:08:49.587Z,17.10
2018-08-24T18:10:51.895Z,17.10
2018-08-24T18:12:54.057Z,17.00
2018-08-24T18:14:56.582Z,16.70
2018-08-24T18:16:58.643Z,16.90
2018-08-24T18:19:00.962Z,16.50
2018-08-24T18:21:03.139Z,16.10
2018-08-24T18:23:05.330Z,16.50
2018-08-24T18:25:07.603Z,16.50
2018-08-24T18:27:09.845Z,16.70
2018-08-24T18:29:12.055Z,16.80
2018-08-24T18:31:14.298Z,16.20
2018-08-24T18:33:16.527Z,16.10
2018-08-24T18:35:18.716Z,16.30
2018-08-24T18:37:20.916Z,15.90
2018-08-24T18:39:23.119Z,15.70
2018-08-24T18:41:25.272Z,15.80
2018-08-24T18:43:27.434Z,15.60
2018-08-24T18:45:29.590Z,15.50
2018-08-24T18:47:31.849Z,15.50
2018-08-24T18:49:34.012Z,15.40
2018-08-24T18:51:36.894Z,15.40
2018-08-24T18:53:39.055Z,15.40
2018-08-24T18:55:41.283Z,15.50
2018-08-24T18:57:43.816Z,16.10
2018-08-24T18:59:45.956Z,15.90
2018-08-24T19:01:48.174Z,15.50
2018-08-24T19:03:50.750Z,15.60
2018-08-24T19:05:52.947Z,15.50
2018-08-24T19:08:00.859Z,15.50
2018-08-24T19:10:03.296Z,15.40
2018-08-24T19:12:11.230Z,15.60
2018-08-24T19:14:13.390Z,15.60
2018-08-24T19:16:15.583Z,15.60
2018-08-24T19:18:23.365Z,15.80
2018-08-24T19:21:33.716Z,15.60
2018-08-24T19:23:36.095Z,15.70
2018-08-24T19:25:38.267Z,15.70
2018-08-24T19:27:46.163Z,15.70
2018-08-24T19:30:53.858Z,15.70
2018-08-24T19:32:56.038Z,15.70
2018-08-24T19:34:58.343Z,15.70
2018-08-24T19:37:00.668Z,15.70
2018-08-24T19:39:04.916Z,15.70
2018-08-24T19:41:12.906Z,15.80
2018-08-24T19:43:15.134Z,15.70
2018-08-24T19:45:17.408Z,15.40
2018-08-24T19:47:25.415Z,15.40
2018-08-24T19:49:27.722Z,15.30
2018-08-24T19:51:29.826Z,15.40
2018-08-24T19:53:32.137Z,15.80
2018-08-24T19:55:34.330Z,15.50
2018-08-24T19:57:42.144Z,15.60
2018-08-24T19:59:44.342Z,15.50
2018-08-24T20:01:46.594Z,15.50
2018-08-24T20:03:48.846Z,15.50
2018-08-24T20:06:57.303Z,15.50
2018-08-24T20:09:05.134Z,15.40
2018-08-24T20:11:07.375Z,15.30
2018-08-24T20:13:09.643Z,15.20
2018-08-24T20:15:17.643Z,15.20
2018-08-24T20:17:25.691Z,15.00
2018-08-24T20:19:28.322Z,15.00
2018-08-24T20:21:30.511Z,15.00
2018-08-24T20:23:32.752Z,15.00
2018-08-24T20:25:34.977Z,14.90
2018-08-24T20:27:37.179Z,14.90
2018-08-24T20:29:39.412Z,14.90
2018-08-24T20:31:41.591Z,14.90
2018-08-24T20:33:43.836Z,15.00
2018-08-24T20:35:45.964Z,15.00
2018-08-24T20:37:48.502Z,15.10
2018-08-24T20:39:50.724Z,15.00
2018-08-24T20:41:52.890Z,15.00
2018-08-24T20:43:55.073Z,15.00
2018-08-24T20:45:57.268Z,15.00
2018-08-24T20:47:59.516Z,15.00
2018-08-24T20:50:01.750Z,14.90
2018-08-24T20:52:03.972Z,15.00
2018-08-24T20:54:06.165Z,14.90
2018-08-24T20:56:08.354Z,14.90
2018-08-24T20:58:10.559Z,14.80
2018-08-24T21:00:12.724Z,14.90
2018-08-24T21:02:14.923Z,15.00
2018-08-24T21:04:17.141Z,14.90
2018-08-24T21:06:19.211Z,14.80
2018-08-24T21:08:21.503Z,14.80
2018-08-24T21:10:23.743Z,14.80
2018-08-24T21:12:25.867Z,14.80
2018-08-24T21:14:28.083Z,14.90
2018-08-24T21:16:30.478Z,14.90
2018-08-24T21:18:32.594Z,14.80
2018-08-24T21:20:34.805Z,14.90
2018-08-24T21:22:36.982Z,14.90
2018-08-24T21:24:39.370Z,14.80
2018-08-24T21:26:41.535Z,14.90
2018-08-24T21:28:43.738Z,14.80
2018-08-24T21:30:45.890Z,14.80
2018-08-24T21:32:48.048Z,14.80
2018-08-24T21:34:52.189Z,15.00
2018-08-24T21:36:54.559Z,14.90
2018-08-24T21:38:56.778Z,15.00
2018-08-24T21:40:58.982Z,14.90
2018-08-24T21:43:01.133Z,14.90
2018-08-24T21:45:03.422Z,14.90
2018-08-24T21:47:05.547Z,15.00
2018-08-24T21:49:07.755Z,15.00
2018-08-24T21:51:09.959Z,14.90
2018-08-24T21:53:12.082Z,15.00
2018-08-24T21:55:14.270Z,14.70
2018-08-24T21:57:16.699Z,14.80
2018-08-24T21:59:18.931Z,14.80
2018-08-24T22:01:21.153Z,14.70
2018-08-24T22:03:23.470Z,14.60
2018-08-24T22:05:25.635Z,14.60
2018-08-24T22:07:27.821Z,14.60
2018-08-24T22:09:29.969Z,14.60
2018-08-24T22:11:32.163Z,14.50
2018-08-24T22:13:34.558Z,14.40
2018-08-24T22:15:36.789Z,14.30
2018-08-24T22:17:38.961Z,14.50
2018-08-24T22:19:41.130Z,14.40
2018-08-24T22:21:43.259Z,14.50
2018-08-24T22:23:45.418Z,14.50
2018-08-24T22:25:47.586Z,14.30
2018-08-24T22:27:49.774Z,14.20
2018-08-24T22:29:51.961Z,14.10
2018-08-24T22:31:54.128Z,14.10
2018-08-24T22:33:56.331Z,13.90
2018-08-24T22:35:58.464Z,13.90
2018-08-24T22:38:00.825Z,13.80
2018-08-24T22:40:03.010Z,13.70
2018-08-24T22:42:05.211Z,13.60
2018-08-24T22:44:07.595Z,13.50
2018-08-24T22:46:09.707Z,13.50
2018-08-24T22:48:11.814Z,13.40
2018-08-24T22:50:14.002Z,13.50
2018-08-24T22:52:16.127Z,13.40
2018-08-24T22:54:18.275Z,13.40
2018-08-24T22:56:20.405Z,13.50
2018-08-24T22:58:22.955Z,13.40
2018-08-24T23:00:25.107Z,13.50
2018-08-24T23:02:27.276Z,13.50
2018-08-24T23:04:36.408Z,13.40
2018-08-24T23:06:38.723Z,13.40
2018-08-24T23:08:40.914Z,13.40
2018-08-24T23:10:43.122Z,13.30
2018-08-24T23:12:45.292Z,13.30
2018-08-24T23:14:47.427Z,13.30
2018-08-24T23:16:49.570Z,13.30
2018-08-24T23:18:51.734Z,13.20
2018-08-24T23:20:53.957Z,13.20
2018-08-24T23:22:56.110Z,13.30
2018-08-24T23:24:58.309Z,13.40
2018-08-24T23:27:00.452Z,13.30
2018-08-24T23:29:02.810Z,13.10
2018-08-24T23:31:05.690Z,13.20
2018-08-24T23:33:07.886Z,13.30
2018-08-24T23:35:10.082Z,13.20
2018-08-24T23:37:12.278Z,13.20
2018-08-24T23:39:14.440Z,13.20
2018-08-24T23:41:16.591Z,13.10
2018-08-24T23:43:18.763Z,13.00
2018-08-24T23:45:20.930Z,13.00
2018-08-24T23:47:23.068Z,12.90
2018-08-24T23:49:25.226Z,12.90
2018-08-24T23:51:27.346Z,12.90
2018-08-24T23:53:29.498Z,12.80
2018-08-24T23:55:31.653Z,12.90
2018-08-24T23:57:33.779Z,12.80
2018-08-24T23:59:36.054Z,12.80
